sensor_id;sensor_type;location;lat;lon;timestamp;P1;durP1;ratioP1;P2;durP2;ratioP2
2966;SDS011;1493;51.496;7.210;2023-04-19T00:00:33;15.50;;;12.07;;
2966;SDS011;1493;51.496;7.210;2023-04-19T00:03:01;16.30;;;13.07;;
2966;SDS011;1493;51.496;7.210;2023-04-19T00:05:27;13.67;;;11.73;;
2966;SDS011;1493;51.496;7.210;2023-04-19T00:07:54;13.30;;;11.43;;
2966;SDS011;1493;51.496;7.210;2023-04-19T00:10:21;14.43;;;12.87;;
2966;SDS011;1493;51.496;7.210;2023-04-19T00:12:48;15.47;;;11.80;;
2966;SDS011;1493;51.496;7.210;2023-04-19T00:15:16;12.70;;;11.37;;
2966;SDS011;1493;51.496;7.210;2023-04-19T00:17:43;16.57;;;13.17;;
2966;SDS011;1493;51.496;7.210;2023-04-19T00:20:10;12.87;;;11.33;;
2966;SDS011;1493;51.496;7.210;2023-04-19T00:22:37;16.23;;;12.03;;
2966;SDS011;1493;51.496;7.210;2023-04-19T00:25:04;12.67;;;10.93;;
2966;SDS011;1493;51.496;7.210;2023-04-19T00:27:31;14.50;;;11.90;;
2966;SDS011;1493;51.496;7.210;2023-04-19T00:29:58;15.77;;;12.07;;
2966;SDS011;1493;51.496;7.210;2023-04-19T00:32:26;29.13;;;11.80;;
2966;SDS011;1493;51.496;7.210;2023-04-19T00:34:53;12.67;;;10.87;;
2966;SDS011;1493;51.496;7.210;2023-04-19T00:37:19;15.83;;;11.10;;
2966;SDS011;1493;51.496;7.210;2023-04-19T00:39:46;13.50;;;11.80;;
2966;SDS011;1493;51.496;7.210;2023-04-19T00:42:13;17.67;;;12.50;;
2966;SDS011;1493;51.496;7.210;2023-04-19T00:44:40;17.60;;;11.63;;
2966;SDS011;1493;51.496;7.210;2023-04-19T00:47:07;16.80;;;11.57;;
2966;SDS011;1493;51.496;7.210;2023-04-19T00:49:36;13.80;;;11.97;;
2966;SDS011;1493;51.496;7.210;2023-04-19T00:52:03;12.20;;;9.97;;
2966;SDS011;1493;51.496;7.210;2023-04-19T00:54:31;14.43;;;11.73;;
2966;SDS011;1493;51.496;7.210;2023-04-19T00:56:58;15.83;;;12.47;;
2966;SDS011;1493;51.496;7.210;2023-04-19T00:59:25;14.10;;;11.60;;
2966;SDS011;1493;51.496;7.210;2023-04-19T01:01:52;18.43;;;12.37;;
2966;SDS011;1493;51.496;7.210;2023-04-19T01:04:19;13.03;;;11.30;;
2966;SDS011;1493;51.496;7.210;2023-04-19T01:06:49;15.53;;;11.60;;
2966;SDS011;1493;51.496;7.210;2023-04-19T01:09:16;16.70;;;12.00;;
2966;SDS011;1493;51.496;7.210;2023-04-19T01:11:43;12.70;;;10.47;;
2966;SDS011;1493;51.496;7.210;2023-04-19T01:14:09;13.67;;;12.17;;
2966;SDS011;1493;51.496;7.210;2023-04-19T01:16:36;13.30;;;11.10;;
2966;SDS011;1493;51.496;7.210;2023-04-19T01:19:04;14.10;;;11.60;;
2966;SDS011;1493;51.496;7.210;2023-04-19T01:21:30;13.97;;;11.80;;
2966;SDS011;1493;51.496;7.210;2023-04-19T01:23:58;13.63;;;10.57;;
2966;SDS011;1493;51.496;7.210;2023-04-19T01:26:25;18.10;;;11.83;;
2966;SDS011;1493;51.496;7.210;2023-04-19T01:28:52;13.80;;;11.50;;
2966;SDS011;1493;51.496;7.210;2023-04-19T01:31:19;12.70;;;10.37;;
2966;SDS011;1493;51.496;7.210;2023-04-19T01:33:46;13.73;;;10.90;;
2966;SDS011;1493;51.496;7.210;2023-04-19T01:36:13;15.47;;;13.20;;
2966;SDS011;1493;51.496;7.210;2023-04-19T01:38:40;15.80;;;12.80;;
2966;SDS011;1493;51.496;7.210;2023-04-19T01:41:08;15.93;;;11.97;;
2966;SDS011;1493;51.496;7.210;2023-04-19T01:43:35;18.10;;;10.87;;
2966;SDS011;1493;51.496;7.210;2023-04-19T01:46:01;14.37;;;11.27;;
2966;SDS011;1493;51.496;7.210;2023-04-19T01:48:28;12.53;;;10.60;;
2966;SDS011;1493;51.496;7.210;2023-04-19T01:50:55;12.80;;;11.17;;
2966;SDS011;1493;51.496;7.210;2023-04-19T01:53:22;14.10;;;10.73;;
2966;SDS011;1493;51.496;7.210;2023-04-19T01:55:49;12.27;;;10.00;;
2966;SDS011;1493;51.496;7.210;2023-04-19T01:58:17;13.63;;;10.23;;
2966;SDS011;1493;51.496;7.210;2023-04-19T02:00:44;13.33;;;10.03;;
2966;SDS011;1493;51.496;7.210;2023-04-19T02:03:10;12.30;;;9.80;;
2966;SDS011;1493;51.496;7.210;2023-04-19T02:05:37;12.50;;;9.83;;
2966;SDS011;1493;51.496;7.210;2023-04-19T02:08:04;11.93;;;9.40;;
2966;SDS011;1493;51.496;7.210;2023-04-19T02:10:31;11.30;;;9.10;;
2966;SDS011;1493;51.496;7.210;2023-04-19T02:12:58;11.63;;;9.50;;
2966;SDS011;1493;51.496;7.210;2023-04-19T02:15:26;12.10;;;9.30;;
2966;SDS011;1493;51.496;7.210;2023-04-19T02:17:53;12.40;;;9.77;;
2966;SDS011;1493;51.496;7.210;2023-04-19T02:20:20;11.87;;;8.00;;
2966;SDS011;1493;51.496;7.210;2023-04-19T02:22:48;12.27;;;9.30;;
2966;SDS011;1493;51.496;7.210;2023-04-19T02:25:14;10.30;;;9.03;;
2966;SDS011;1493;51.496;7.210;2023-04-19T02:27:43;11.10;;;9.03;;
2966;SDS011;1493;51.496;7.210;2023-04-19T02:30:10;14.57;;;9.10;;
2966;SDS011;1493;51.496;7.210;2023-04-19T02:32:39;12.63;;;9.10;;
2966;SDS011;1493;51.496;7.210;2023-04-19T02:35:06;9.83;;;7.97;;
2966;SDS011;1493;51.496;7.210;2023-04-19T02:37:33;9.27;;;7.27;;
2966;SDS011;1493;51.496;7.210;2023-04-19T02:40:00;9.93;;;7.30;;
2966;SDS011;1493;51.496;7.210;2023-04-19T02:42:29;8.00;;;7.20;;
2966;SDS011;1493;51.496;7.210;2023-04-19T02:44:56;9.00;;;7.83;;
2966;SDS011;1493;51.496;7.210;2023-04-19T02:47:22;9.30;;;6.83;;
2966;SDS011;1493;51.496;7.210;2023-04-19T02:49:51;8.77;;;6.77;;
2966;SDS011;1493;51.496;7.210;2023-04-19T02:52:17;8.17;;;6.77;;
2966;SDS011;1493;51.496;7.210;2023-04-19T02:54:44;8.80;;;6.23;;
2966;SDS011;1493;51.496;7.210;2023-04-19T02:57:11;7.70;;;6.17;;
2966;SDS011;1493;51.496;7.210;2023-04-19T02:59:38;7.83;;;6.13;;
2966;SDS011;1493;51.496;7.210;2023-04-19T03:02:04;7.70;;;5.60;;
2966;SDS011;1493;51.496;7.210;2023-04-19T03:04:31;9.10;;;5.90;;
2966;SDS011;1493;51.496;7.210;2023-04-19T03:06:59;8.00;;;6.13;;
2966;SDS011;1493;51.496;7.210;2023-04-19T03:09:26;6.33;;;5.13;;
2966;SDS011;1493;51.496;7.210;2023-04-19T03:11:53;7.17;;;5.53;;
2966;SDS011;1493;51.496;7.210;2023-04-19T03:14:20;7.70;;;5.87;;
2966;SDS011;1493;51.496;7.210;2023-04-19T03:16:47;7.30;;;5.80;;
2966;SDS011;1493;51.496;7.210;2023-04-19T03:19:13;6.63;;;4.90;;
2966;SDS011;1493;51.496;7.210;2023-04-19T03:21:40;7.80;;;4.77;;
2966;SDS011;1493;51.496;7.210;2023-04-19T03:24:08;9.10;;;5.33;;
2966;SDS011;1493;51.496;7.210;2023-04-19T03:26:35;6.50;;;5.07;;
2966;SDS011;1493;51.496;7.210;2023-04-19T03:29:02;5.40;;;4.90;;
2966;SDS011;1493;51.496;7.210;2023-04-19T03:31:29;8.97;;;6.20;;
2966;SDS011;1493;51.496;7.210;2023-04-19T03:33:56;9.43;;;6.00;;
2966;SDS011;1493;51.496;7.210;2023-04-19T03:36:22;5.57;;;4.37;;
2966;SDS011;1493;51.496;7.210;2023-04-19T03:38:50;8.13;;;5.80;;
2966;SDS011;1493;51.496;7.210;2023-04-19T03:41:19;5.53;;;4.70;;
2966;SDS011;1493;51.496;7.210;2023-04-19T03:43:46;6.20;;;5.10;;
2966;SDS011;1493;51.496;7.210;2023-04-19T03:46:13;6.73;;;4.80;;
2966;SDS011;1493;51.496;7.210;2023-04-19T03:48:39;6.30;;;5.20;;
2966;SDS011;1493;51.496;7.210;2023-04-19T03:51:06;6.07;;;4.37;;
2966;SDS011;1493;51.496;7.210;2023-04-19T03:53:33;7.73;;;5.17;;
2966;SDS011;1493;51.496;7.210;2023-04-19T03:56:01;6.60;;;4.63;;
2966;SDS011;1493;51.496;7.210;2023-04-19T03:58:29;5.23;;;4.00;;
2966;SDS011;1493;51.496;7.210;2023-04-19T04:00:57;6.60;;;4.83;;
2966;SDS011;1493;51.496;7.210;2023-04-19T04:03:24;6.13;;;4.23;;
2966;SDS011;1493;51.496;7.210;2023-04-19T04:05:51;5.83;;;4.53;;
2966;SDS011;1493;51.496;7.210;2023-04-19T04:08:17;6.87;;;3.93;;
2966;SDS011;1493;51.496;7.210;2023-04-19T04:10:44;6.40;;;4.03;;
2966;SDS011;1493;51.496;7.210;2023-04-19T04:13:11;5.83;;;4.47;;
2966;SDS011;1493;51.496;7.210;2023-04-19T04:15:39;5.37;;;4.37;;
2966;SDS011;1493;51.496;7.210;2023-04-19T04:18:06;6.80;;;4.60;;
2966;SDS011;1493;51.496;7.210;2023-04-19T04:20:33;6.50;;;4.60;;
2966;SDS011;1493;51.496;7.210;2023-04-19T04:23:00;4.60;;;4.07;;
2966;SDS011;1493;51.496;7.210;2023-04-19T04:25:27;6.10;;;4.30;;
2966;SDS011;1493;51.496;7.210;2023-04-19T04:27:57;7.50;;;4.93;;
2966;SDS011;1493;51.496;7.210;2023-04-19T04:30:24;9.93;;;5.23;;
2966;SDS011;1493;51.496;7.210;2023-04-19T04:32:54;5.30;;;4.10;;
2966;SDS011;1493;51.496;7.210;2023-04-19T04:35:22;6.20;;;4.40;;
2966;SDS011;1493;51.496;7.210;2023-04-19T04:37:49;6.90;;;4.40;;
2966;SDS011;1493;51.496;7.210;2023-04-19T04:40:18;6.33;;;4.80;;
2966;SDS011;1493;51.496;7.210;2023-04-19T04:42:45;5.40;;;4.47;;
2966;SDS011;1493;51.496;7.210;2023-04-19T04:45:12;6.57;;;4.30;;
2966;SDS011;1493;51.496;7.210;2023-04-19T04:47:42;6.97;;;4.77;;
2966;SDS011;1493;51.496;7.210;2023-04-19T04:50:11;5.70;;;4.60;;
2966;SDS011;1493;51.496;7.210;2023-04-19T04:52:38;6.60;;;4.50;;
2966;SDS011;1493;51.496;7.210;2023-04-19T04:55:05;6.03;;;4.40;;
2966;SDS011;1493;51.496;7.210;2023-04-19T04:57:33;7.23;;;5.13;;
2966;SDS011;1493;51.496;7.210;2023-04-19T04:59:59;6.30;;;4.83;;
2966;SDS011;1493;51.496;7.210;2023-04-19T05:02:26;6.20;;;5.10;;
2966;SDS011;1493;51.496;7.210;2023-04-19T05:04:53;8.80;;;4.90;;
2966;SDS011;1493;51.496;7.210;2023-04-19T05:07:21;11.67;;;5.60;;
2966;SDS011;1493;51.496;7.210;2023-04-19T05:09:48;5.50;;;4.53;;
2966;SDS011;1493;51.496;7.210;2023-04-19T05:12:15;8.33;;;5.70;;
2966;SDS011;1493;51.496;7.210;2023-04-19T05:14:42;7.57;;;5.77;;
2966;SDS011;1493;51.496;7.210;2023-04-19T05:17:08;7.17;;;5.03;;
2966;SDS011;1493;51.496;7.210;2023-04-19T05:19:35;7.30;;;5.90;;
2966;SDS011;1493;51.496;7.210;2023-04-19T05:22:02;11.63;;;5.57;;
2966;SDS011;1493;51.496;7.210;2023-04-19T05:24:30;8.50;;;5.70;;
2966;SDS011;1493;51.496;7.210;2023-04-19T05:26:57;6.60;;;5.50;;
2966;SDS011;1493;51.496;7.210;2023-04-19T05:29:24;7.53;;;5.60;;
2966;SDS011;1493;51.496;7.210;2023-04-19T05:31:50;8.17;;;5.23;;
2966;SDS011;1493;51.496;7.210;2023-04-19T05:34:17;9.00;;;5.30;;
2966;SDS011;1493;51.496;7.210;2023-04-19T05:36:44;9.90;;;6.07;;
2966;SDS011;1493;51.496;7.210;2023-04-19T05:39:11;7.93;;;6.20;;
2966;SDS011;1493;51.496;7.210;2023-04-19T05:41:40;7.03;;;5.43;;
2966;SDS011;1493;51.496;7.210;2023-04-19T05:44:06;8.43;;;6.20;;
2966;SDS011;1493;51.496;7.210;2023-04-19T05:46:33;6.97;;;5.53;;
2966;SDS011;1493;51.496;7.210;2023-04-19T05:49:01;9.80;;;5.10;;
2966;SDS011;1493;51.496;7.210;2023-04-19T05:51:27;7.57;;;5.00;;
2966;SDS011;1493;51.496;7.210;2023-04-19T05:53:55;6.90;;;4.47;;
2966;SDS011;1493;51.496;7.210;2023-04-19T05:56:22;8.73;;;6.00;;
2966;SDS011;1493;51.496;7.210;2023-04-19T05:58:51;8.43;;;5.10;;
2966;SDS011;1493;51.496;7.210;2023-04-19T06:01:19;9.63;;;4.27;;
2966;SDS011;1493;51.496;7.210;2023-04-19T06:03:46;6.70;;;4.77;;
2966;SDS011;1493;51.496;7.210;2023-04-19T06:06:16;6.00;;;4.07;;
2966;SDS011;1493;51.496;7.210;2023-04-19T06:08:43;4.90;;;3.90;;
2966;SDS011;1493;51.496;7.210;2023-04-19T06:11:10;4.90;;;3.83;;
2966;SDS011;1493;51.496;7.210;2023-04-19T06:13:37;8.33;;;4.20;;
2966;SDS011;1493;51.496;7.210;2023-04-19T06:16:06;9.00;;;4.60;;
2966;SDS011;1493;51.496;7.210;2023-04-19T06:18:33;6.10;;;3.93;;
2966;SDS011;1493;51.496;7.210;2023-04-19T06:21:00;8.53;;;4.20;;
2966;SDS011;1493;51.496;7.210;2023-04-19T06:23:27;6.30;;;4.33;;
2966;SDS011;1493;51.496;7.210;2023-04-19T06:25:54;6.03;;;4.17;;
2966;SDS011;1493;51.496;7.210;2023-04-19T06:28:20;8.57;;;4.20;;
2966;SDS011;1493;51.496;7.210;2023-04-19T06:30:47;8.63;;;4.30;;
2966;SDS011;1493;51.496;7.210;2023-04-19T06:33:15;5.93;;;3.53;;
2966;SDS011;1493;51.496;7.210;2023-04-19T06:35:42;6.60;;;4.37;;
2966;SDS011;1493;51.496;7.210;2023-04-19T06:38:09;5.57;;;3.50;;
2966;SDS011;1493;51.496;7.210;2023-04-19T06:40:36;4.70;;;3.23;;
2966;SDS011;1493;51.496;7.210;2023-04-19T06:43:02;6.30;;;3.77;;
2966;SDS011;1493;51.496;7.210;2023-04-19T06:45:29;5.50;;;3.20;;
2966;SDS011;1493;51.496;7.210;2023-04-19T06:47:56;5.37;;;3.40;;
2966;SDS011;1493;51.496;7.210;2023-04-19T06:50:24;6.20;;;3.30;;
2966;SDS011;1493;51.496;7.210;2023-04-19T06:52:52;5.10;;;3.20;;
2966;SDS011;1493;51.496;7.210;2023-04-19T06:55:19;8.90;;;3.23;;
2966;SDS011;1493;51.496;7.210;2023-04-19T06:57:46;8.30;;;3.60;;
2966;SDS011;1493;51.496;7.210;2023-04-19T07:00:13;5.10;;;3.30;;
2966;SDS011;1493;51.496;7.210;2023-04-19T07:02:40;5.03;;;3.10;;
2966;SDS011;1493;51.496;7.210;2023-04-19T07:05:07;4.40;;;3.10;;
2966;SDS011;1493;51.496;7.210;2023-04-19T07:07:38;13.00;;;3.77;;
2966;SDS011;1493;51.496;7.210;2023-04-19T07:10:06;6.73;;;3.67;;
2966;SDS011;1493;51.496;7.210;2023-04-19T07:12:33;6.03;;;3.23;;
2966;SDS011;1493;51.496;7.210;2023-04-19T07:15:01;4.57;;;3.03;;
2966;SDS011;1493;51.496;7.210;2023-04-19T07:17:29;4.30;;;2.73;;
2966;SDS011;1493;51.496;7.210;2023-04-19T07:19:56;8.53;;;4.00;;
2966;SDS011;1493;51.496;7.210;2023-04-19T07:22:24;5.60;;;2.77;;
2966;SDS011;1493;51.496;7.210;2023-04-19T07:24:53;5.70;;;3.03;;
2966;SDS011;1493;51.496;7.210;2023-04-19T07:27:19;5.80;;;3.47;;
2966;SDS011;1493;51.496;7.210;2023-04-19T07:29:46;6.07;;;3.57;;
2966;SDS011;1493;51.496;7.210;2023-04-19T07:32:13;9.63;;;3.43;;
2966;SDS011;1493;51.496;7.210;2023-04-19T07:34:40;10.03;;;2.97;;
2966;SDS011;1493;51.496;7.210;2023-04-19T07:37:07;6.13;;;2.80;;
2966;SDS011;1493;51.496;7.210;2023-04-19T07:39:34;6.60;;;2.93;;
2966;SDS011;1493;51.496;7.210;2023-04-19T07:42:02;7.63;;;3.17;;
2966;SDS011;1493;51.496;7.210;2023-04-19T07:44:29;6.47;;;3.40;;
2966;SDS011;1493;51.496;7.210;2023-04-19T07:47:02;4.23;;;2.97;;
2966;SDS011;1493;51.496;7.210;2023-04-19T07:49:32;5.07;;;3.10;;
2966;SDS011;1493;51.496;7.210;2023-04-19T07:52:05;4.27;;;3.00;;
2966;SDS011;1493;51.496;7.210;2023-04-19T07:54:34;4.83;;;3.13;;
2966;SDS011;1493;51.496;7.210;2023-04-19T07:57:04;5.93;;;3.47;;
2966;SDS011;1493;51.496;7.210;2023-04-19T07:59:31;7.87;;;2.87;;
2966;SDS011;1493;51.496;7.210;2023-04-19T08:01:58;4.63;;;3.30;;
2966;SDS011;1493;51.496;7.210;2023-04-19T08:04:25;5.57;;;2.97;;
2966;SDS011;1493;51.496;7.210;2023-04-19T08:06:54;3.63;;;2.60;;
2966;SDS011;1493;51.496;7.210;2023-04-19T08:09:41;5.93;;;3.00;;
2966;SDS011;1493;51.496;7.210;2023-04-19T08:12:13;5.90;;;2.60;;
2966;SDS011;1493;51.496;7.210;2023-04-19T08:15:11;5.87;;;2.60;;
2966;SDS011;1493;51.496;7.210;2023-04-19T08:17:45;7.73;;;3.00;;
2966;SDS011;1493;51.496;7.210;2023-04-19T08:20:37;3.37;;;2.27;;
2966;SDS011;1493;51.496;7.210;2023-04-19T08:23:24;6.50;;;3.40;;
2966;SDS011;1493;51.496;7.210;2023-04-19T08:25:51;5.90;;;3.03;;
2966;SDS011;1493;51.496;7.210;2023-04-19T08:28:20;4.90;;;3.00;;
2966;SDS011;1493;51.496;7.210;2023-04-19T08:30:46;5.70;;;2.83;;
2966;SDS011;1493;51.496;7.210;2023-04-19T08:33:14;4.43;;;2.73;;
2966;SDS011;1493;51.496;7.210;2023-04-19T08:35:41;5.03;;;3.27;;
2966;SDS011;1493;51.496;7.210;2023-04-19T08:38:09;9.43;;;3.07;;
2966;SDS011;1493;51.496;7.210;2023-04-19T08:40:36;4.77;;;2.70;;
2966;SDS011;1493;51.496;7.210;2023-04-19T08:43:10;6.97;;;2.87;;
2966;SDS011;1493;51.496;7.210;2023-04-19T08:45:38;5.80;;;3.93;;
2966;SDS011;1493;51.496;7.210;2023-04-19T08:48:07;4.00;;;2.33;;
2966;SDS011;1493;51.496;7.210;2023-04-19T08:50:35;3.10;;;2.37;;
2966;SDS011;1493;51.496;7.210;2023-04-19T08:53:05;3.90;;;2.33;;
2966;SDS011;1493;51.496;7.210;2023-04-19T08:55:33;3.50;;;2.17;;
2966;SDS011;1493;51.496;7.210;2023-04-19T08:58:02;3.57;;;2.20;;
2966;SDS011;1493;51.496;7.210;2023-04-19T09:00:29;2.87;;;2.10;;
2966;SDS011;1493;51.496;7.210;2023-04-19T09:02:58;7.57;;;2.20;;
2966;SDS011;1493;51.496;7.210;2023-04-19T09:05:25;5.00;;;2.20;;
2966;SDS011;1493;51.496;7.210;2023-04-19T09:07:52;4.03;;;1.93;;
2966;SDS011;1493;51.496;7.210;2023-04-19T09:10:19;3.53;;;2.00;;
2966;SDS011;1493;51.496;7.210;2023-04-19T09:15:34;3.03;;;1.90;;
2966;SDS011;1493;51.496;7.210;2023-04-19T09:18:04;2.93;;;1.60;;
2966;SDS011;1493;51.496;7.210;2023-04-19T09:20:36;2.80;;;1.57;;
2966;SDS011;1493;51.496;7.210;2023-04-19T09:23:04;2.47;;;1.47;;
2966;SDS011;1493;51.496;7.210;2023-04-19T09:25:33;2.50;;;1.60;;
2966;SDS011;1493;51.496;7.210;2023-04-19T09:28:09;2.93;;;1.70;;
2966;SDS011;1493;51.496;7.210;2023-04-19T09:30:37;3.10;;;1.67;;
2966;SDS011;1493;51.496;7.210;2023-04-19T09:33:06;3.23;;;1.70;;
2966;SDS011;1493;51.496;7.210;2023-04-19T09:35:39;2.70;;;1.80;;
2966;SDS011;1493;51.496;7.210;2023-04-19T09:38:07;3.73;;;1.80;;
2966;SDS011;1493;51.496;7.210;2023-04-19T09:40:35;2.90;;;1.80;;
2966;SDS011;1493;51.496;7.210;2023-04-19T09:43:02;2.80;;;1.60;;
2966;SDS011;1493;51.496;7.210;2023-04-19T09:45:37;3.37;;;2.10;;
2966;SDS011;1493;51.496;7.210;2023-04-19T09:48:07;2.57;;;1.47;;
2966;SDS011;1493;51.496;7.210;2023-04-19T09:50:35;4.73;;;2.60;;
2966;SDS011;1493;51.496;7.210;2023-04-19T09:53:15;6.07;;;1.80;;
2966;SDS011;1493;51.496;7.210;2023-04-19T09:55:43;2.73;;;1.80;;
2966;SDS011;1493;51.496;7.210;2023-04-19T09:58:11;3.80;;;2.00;;
2966;SDS011;1493;51.496;7.210;2023-04-19T10:00:38;2.77;;;2.00;;
2966;SDS011;1493;51.496;7.210;2023-04-19T10:03:07;3.60;;;2.30;;
2966;SDS011;1493;51.496;7.210;2023-04-19T10:05:35;4.00;;;2.00;;
2966;SDS011;1493;51.496;7.210;2023-04-19T10:08:06;3.10;;;2.17;;
2966;SDS011;1493;51.496;7.210;2023-04-19T10:10:34;4.50;;;2.20;;
2966;SDS011;1493;51.496;7.210;2023-04-19T10:13:01;3.47;;;2.63;;
2966;SDS011;1493;51.496;7.210;2023-04-19T10:15:30;3.33;;;2.53;;
2966;SDS011;1493;51.496;7.210;2023-04-19T10:17:57;4.23;;;3.00;;
2966;SDS011;1493;51.496;7.210;2023-04-19T10:20:31;4.00;;;2.60;;
2966;SDS011;1493;51.496;7.210;2023-04-19T10:23:15;4.00;;;2.10;;
2966;SDS011;1493;51.496;7.210;2023-04-19T10:25:44;4.67;;;2.80;;
2966;SDS011;1493;51.496;7.210;2023-04-19T10:28:12;4.90;;;2.83;;
2966;SDS011;1493;51.496;7.210;2023-04-19T10:30:51;3.40;;;2.43;;
2966;SDS011;1493;51.496;7.210;2023-04-19T10:33:23;4.33;;;2.40;;
2966;SDS011;1493;51.496;7.210;2023-04-19T10:35:54;3.07;;;2.00;;
2966;SDS011;1493;51.496;7.210;2023-04-19T10:38:24;2.77;;;2.40;;
2966;SDS011;1493;51.496;7.210;2023-04-19T10:41:01;3.57;;;2.17;;
2966;SDS011;1493;51.496;7.210;2023-04-19T10:43:29;4.20;;;1.93;;
2966;SDS011;1493;51.496;7.210;2023-04-19T10:45:58;6.07;;;2.20;;
2966;SDS011;1493;51.496;7.210;2023-04-19T10:48:36;2.50;;;2.00;;
2966;SDS011;1493;51.496;7.210;2023-04-19T10:51:11;2.70;;;1.80;;
2966;SDS011;1493;51.496;7.210;2023-04-19T10:53:43;3.47;;;2.00;;
2966;SDS011;1493;51.496;7.210;2023-04-19T10:56:15;3.13;;;2.37;;
2966;SDS011;1493;51.496;7.210;2023-04-19T11:01:45;4.50;;;2.70;;
2966;SDS011;1493;51.496;7.210;2023-04-19T11:04:17;3.20;;;2.27;;
2966;SDS011;1493;51.496;7.210;2023-04-19T11:09:30;3.63;;;2.57;;
2966;SDS011;1493;51.496;7.210;2023-04-19T11:11:59;3.73;;;2.40;;
2966;SDS011;1493;51.496;7.210;2023-04-19T11:14:31;4.43;;;2.20;;
2966;SDS011;1493;51.496;7.210;2023-04-19T11:16:59;3.10;;;2.50;;
2966;SDS011;1493;51.496;7.210;2023-04-19T11:19:29;4.23;;;2.53;;
2966;SDS011;1493;51.496;7.210;2023-04-19T11:21:56;4.77;;;2.63;;
2966;SDS011;1493;51.496;7.210;2023-04-19T11:24:26;4.20;;;3.40;;
2966;SDS011;1493;51.496;7.210;2023-04-19T11:26:54;4.50;;;2.33;;
2966;SDS011;1493;51.496;7.210;2023-04-19T11:29:22;3.60;;;2.50;;
2966;SDS011;1493;51.496;7.210;2023-04-19T11:31:49;3.30;;;2.80;;
2966;SDS011;1493;51.496;7.210;2023-04-19T11:34:16;5.87;;;2.17;;
2966;SDS011;1493;51.496;7.210;2023-04-19T11:36:47;4.60;;;2.53;;
2966;SDS011;1493;51.496;7.210;2023-04-19T11:39:15;4.30;;;2.57;;
2966;SDS011;1493;51.496;7.210;2023-04-19T11:41:43;4.20;;;2.90;;
2966;SDS011;1493;51.496;7.210;2023-04-19T11:44:12;3.40;;;2.77;;
2966;SDS011;1493;51.496;7.210;2023-04-19T11:46:39;4.37;;;2.97;;
2966;SDS011;1493;51.496;7.210;2023-04-19T11:49:06;3.70;;;2.60;;
2966;SDS011;1493;51.496;7.210;2023-04-19T11:51:33;5.60;;;2.80;;
2966;SDS011;1493;51.496;7.210;2023-04-19T11:54:00;4.23;;;2.60;;
2966;SDS011;1493;51.496;7.210;2023-04-19T11:56:27;3.57;;;2.90;;
2966;SDS011;1493;51.496;7.210;2023-04-19T11:58:56;8.87;;;3.43;;
2966;SDS011;1493;51.496;7.210;2023-04-19T12:01:23;4.97;;;3.30;;
2966;SDS011;1493;51.496;7.210;2023-04-19T12:03:50;3.20;;;2.57;;
2966;SDS011;1493;51.496;7.210;2023-04-19T12:06:21;4.07;;;2.57;;
2966;SDS011;1493;51.496;7.210;2023-04-19T12:08:49;5.33;;;3.00;;
2966;SDS011;1493;51.496;7.210;2023-04-19T12:11:18;3.83;;;2.97;;
2966;SDS011;1493;51.496;7.210;2023-04-19T12:13:47;4.20;;;2.43;;
2966;SDS011;1493;51.496;7.210;2023-04-19T12:16:15;5.10;;;3.20;;
2966;SDS011;1493;51.496;7.210;2023-04-19T12:18:53;3.90;;;3.00;;
2966;SDS011;1493;51.496;7.210;2023-04-19T12:21:23;5.30;;;3.80;;
2966;SDS011;1493;51.496;7.210;2023-04-19T12:23:52;3.63;;;2.97;;
2966;SDS011;1493;51.496;7.210;2023-04-19T12:26:20;4.63;;;2.63;;
2966;SDS011;1493;51.496;7.210;2023-04-19T12:28:47;4.90;;;3.27;;
2966;SDS011;1493;51.496;7.210;2023-04-19T12:31:15;4.77;;;2.80;;
2966;SDS011;1493;51.496;7.210;2023-04-19T12:33:42;4.27;;;3.20;;
2966;SDS011;1493;51.496;7.210;2023-04-19T12:36:09;3.53;;;2.57;;
2966;SDS011;1493;51.496;7.210;2023-04-19T12:38:36;3.20;;;2.77;;
2966;SDS011;1493;51.496;7.210;2023-04-19T12:41:02;6.37;;;3.73;;
2966;SDS011;1493;51.496;7.210;2023-04-19T12:43:29;3.47;;;3.00;;
2966;SDS011;1493;51.496;7.210;2023-04-19T12:45:56;4.53;;;3.10;;
2966;SDS011;1493;51.496;7.210;2023-04-19T12:48:24;5.07;;;3.27;;
2966;SDS011;1493;51.496;7.210;2023-04-19T12:50:52;3.87;;;2.70;;
2966;SDS011;1493;51.496;7.210;2023-04-19T12:53:19;5.80;;;3.37;;
2966;SDS011;1493;51.496;7.210;2023-04-19T12:55:46;4.73;;;2.90;;
2966;SDS011;1493;51.496;7.210;2023-04-19T12:58:13;3.93;;;2.80;;
2966;SDS011;1493;51.496;7.210;2023-04-19T13:00:40;3.47;;;3.17;;
2966;SDS011;1493;51.496;7.210;2023-04-19T13:03:07;5.10;;;2.80;;
2966;SDS011;1493;51.496;7.210;2023-04-19T13:05:36;4.70;;;2.97;;
2966;SDS011;1493;51.496;7.210;2023-04-19T13:08:03;3.70;;;2.67;;
2966;SDS011;1493;51.496;7.210;2023-04-19T13:10:30;5.10;;;3.33;;
2966;SDS011;1493;51.496;7.210;2023-04-19T13:12:57;2.87;;;2.57;;
2966;SDS011;1493;51.496;7.210;2023-04-19T13:15:24;5.23;;;2.90;;
2966;SDS011;1493;51.496;7.210;2023-04-19T13:17:52;8.00;;;3.50;;
2966;SDS011;1493;51.496;7.210;2023-04-19T13:20:19;5.20;;;3.33;;
2966;SDS011;1493;51.496;7.210;2023-04-19T13:22:47;3.90;;;3.37;;
2966;SDS011;1493;51.496;7.210;2023-04-19T13:25:14;4.73;;;3.00;;
2966;SDS011;1493;51.496;7.210;2023-04-19T13:27:41;8.80;;;2.80;;
2966;SDS011;1493;51.496;7.210;2023-04-19T13:30:08;5.17;;;3.00;;
2966;SDS011;1493;51.496;7.210;2023-04-19T13:32:35;5.03;;;2.70;;
2966;SDS011;1493;51.496;7.210;2023-04-19T13:35:02;6.10;;;2.83;;
2966;SDS011;1493;51.496;7.210;2023-04-19T13:37:29;4.80;;;2.60;;
2966;SDS011;1493;51.496;7.210;2023-04-19T13:39:57;4.20;;;2.80;;
2966;SDS011;1493;51.496;7.210;2023-04-19T13:42:24;3.70;;;2.90;;
2966;SDS011;1493;51.496;7.210;2023-04-19T13:44:53;4.00;;;2.53;;
2966;SDS011;1493;51.496;7.210;2023-04-19T13:47:24;4.83;;;2.50;;
2966;SDS011;1493;51.496;7.210;2023-04-19T13:50:01;5.00;;;2.50;;
2966;SDS011;1493;51.496;7.210;2023-04-19T13:52:32;3.10;;;2.70;;
2966;SDS011;1493;51.496;7.210;2023-04-19T13:55:01;6.03;;;2.50;;
2966;SDS011;1493;51.496;7.210;2023-04-19T13:57:28;3.60;;;2.27;;
2966;SDS011;1493;51.496;7.210;2023-04-19T13:59:55;6.73;;;3.07;;
2966;SDS011;1493;51.496;7.210;2023-04-19T14:02:22;5.43;;;2.43;;
2966;SDS011;1493;51.496;7.210;2023-04-19T14:04:49;4.53;;;2.27;;
2966;SDS011;1493;51.496;7.210;2023-04-19T14:07:15;4.20;;;2.87;;
2966;SDS011;1493;51.496;7.210;2023-04-19T14:09:42;3.27;;;2.30;;
2966;SDS011;1493;51.496;7.210;2023-04-19T14:12:11;3.63;;;2.60;;
2966;SDS011;1493;51.496;7.210;2023-04-19T14:14:37;3.10;;;2.50;;
2966;SDS011;1493;51.496;7.210;2023-04-19T14:17:04;4.90;;;2.23;;
2966;SDS011;1493;51.496;7.210;2023-04-19T14:19:31;2.70;;;1.83;;
2966;SDS011;1493;51.496;7.210;2023-04-19T14:21:58;5.13;;;2.10;;
2966;SDS011;1493;51.496;7.210;2023-04-19T14:24:25;3.37;;;2.57;;
2966;SDS011;1493;51.496;7.210;2023-04-19T14:26:52;2.70;;;2.30;;
2966;SDS011;1493;51.496;7.210;2023-04-19T14:29:20;2.80;;;2.20;;
2966;SDS011;1493;51.496;7.210;2023-04-19T14:31:47;2.93;;;2.00;;
2966;SDS011;1493;51.496;7.210;2023-04-19T14:34:14;4.37;;;2.50;;
2966;SDS011;1493;51.496;7.210;2023-04-19T14:36:40;4.70;;;2.27;;
2966;SDS011;1493;51.496;7.210;2023-04-19T14:39:07;3.30;;;2.17;;
2966;SDS011;1493;51.496;7.210;2023-04-19T14:41:34;5.00;;;2.30;;
2966;SDS011;1493;51.496;7.210;2023-04-19T14:44:01;4.40;;;2.37;;
2966;SDS011;1493;51.496;7.210;2023-04-19T14:46:29;2.53;;;2.03;;
2966;SDS011;1493;51.496;7.210;2023-04-19T14:48:56;2.63;;;1.80;;
2966;SDS011;1493;51.496;7.210;2023-04-19T14:51:27;3.17;;;2.00;;
2966;SDS011;1493;51.496;7.210;2023-04-19T14:53:55;3.87;;;2.43;;
2966;SDS011;1493;51.496;7.210;2023-04-19T14:56:23;8.73;;;2.50;;
2966;SDS011;1493;51.496;7.210;2023-04-19T14:58:51;2.37;;;1.70;;
2966;SDS011;1493;51.496;7.210;2023-04-19T15:01:18;4.90;;;2.33;;
2966;SDS011;1493;51.496;7.210;2023-04-19T15:03:48;2.87;;;2.00;;
2966;SDS011;1493;51.496;7.210;2023-04-19T15:06:15;2.53;;;1.77;;
2966;SDS011;1493;51.496;7.210;2023-04-19T15:08:42;2.77;;;1.53;;
2966;SDS011;1493;51.496;7.210;2023-04-19T15:11:08;3.20;;;1.80;;
2966;SDS011;1493;51.496;7.210;2023-04-19T15:13:35;3.50;;;2.10;;
2966;SDS011;1493;51.496;7.210;2023-04-19T15:16:02;2.90;;;2.30;;
2966;SDS011;1493;51.496;7.210;2023-04-19T15:18:31;2.60;;;2.10;;
2966;SDS011;1493;51.496;7.210;2023-04-19T15:20:59;3.13;;;2.67;;
2966;SDS011;1493;51.496;7.210;2023-04-19T15:23:28;3.60;;;2.17;;